This is the latest recevied weather packets stored in our database for station/object WA9NNN-10. If no packets are shown the sender has not sent any weather packets the latest 10 day(s).
| Time | Temp. | Humidity | Pressure | Rain* | Wind** | Luminosity | Snow |
|---|---|---|---|---|---|---|---|
| 1777944096 | 17.22° C | 79% | 998.6 hPa | 0 mm | - | - | - |
| 1777943797 | 17.22° C | 80% | 998.6 hPa | 0 mm | - | - | - |
| 1777943497 | 17.22° C | 81% | 998.3 hPa | 0 mm | - | - | - |
| 1777943196 | 17.22° C | 82% | 998 hPa | 0 mm | - | - | - |
| 1777942897 | 17.22° C | 82% | 998 hPa | 0 mm | - | - | - |
| 1777942596 | 17.22° C | 82% | 998.1 hPa | 0 mm | - | - | - |
| 1777942297 | 17.22° C | 82% | 998.1 hPa | 0 mm | - | - | - |
| 1777941996 | 17.22° C | 82% | 998.1 hPa | 1.27 mm | - | - | - |
| 1777941698 | 17.22° C | 82% | 998.2 hPa | 2.54 mm | - | - | - |
| 1777941396 | 17.22° C | 82% | 998.1 hPa | 3.05 mm | - | - | - |
| 1777941097 | 17.22° C | 82% | 998.2 hPa | 5.33 mm | - | - | - |
| 1777940796 | 17.22° C | 82% | 998.2 hPa | 5.33 mm | - | - | - |
| 1777940497 | 17.78° C | 82% | 998 hPa | 5.59 mm | - | - | - |
| 1777940196 | 17.78° C | 81% | 997.8 hPa | 6.6 mm | - | - | - |
| 1777939896 | 17.78° C | 80% | 997.5 hPa | 6.6 mm | - | - | - |
| 1777939596 | 17.78° C | 79% | 997.3 hPa | 6.6 mm | - | - | - |
| 1777939296 | 17.78° C | 78% | 997.1 hPa | 6.6 mm | - | - | - |
| 1777938996 | 17.78° C | 76% | 997 hPa | 6.6 mm | - | - | - |
| 1777938696 | 18.33° C | 73% | 997.4 hPa | 6.6 mm | - | - | - |
| 1777938397 | 18.89° C | 70% | 998.4 hPa | 5.33 mm | - | - | - |
| 1777938097 | 20° C | 68% | 998.5 hPa | 3.81 mm | - | - | - |
| 1777937796 | 20.56° C | 67% | 998.9 hPa | 3.3 mm | - | - | - |
| 1777937497 | 21.11° C | 64% | 998.4 hPa | 1.27 mm | - | - | - |
| 1777937196 | 22.22° C | 62% | 998.2 hPa | 1.27 mm | - | - | - |
| 1777936897 | 23.33° C | 58% | 998.2 hPa | 1.02 mm | - | - | - |
* Rain latest hour (hover to see other rain measurements)
** Current wind speed in m/s (hover to see current wind gust speed)